createdAt,value
2022-08-10T00:01:11.828Z,43.27
2022-08-10T00:03:38.379Z,43.47
2022-08-10T00:06:06.014Z,43.35
2022-08-10T00:08:32.467Z,43.37
2022-08-10T00:10:59.059Z,43.30
2022-08-10T00:13:26.564Z,43.29
2022-08-10T00:15:55.044Z,43.22
2022-08-10T00:18:35.015Z,42.97
2022-08-10T00:21:04.011Z,43.05
2022-08-10T00:23:30.492Z,43.11
2022-08-10T00:25:56.946Z,42.88
2022-08-10T00:28:23.420Z,43.14
2022-08-10T00:30:50.018Z,43.08
2022-08-10T00:33:16.583Z,43.15
2022-08-10T00:35:43.315Z,42.76
2022-08-10T00:38:09.976Z,42.78
2022-08-10T00:40:38.038Z,43.04
2022-08-10T00:43:05.517Z,42.70
2022-08-10T00:45:32.076Z,42.99
2022-08-10T00:47:58.529Z,42.85
2022-08-10T00:50:25.676Z,42.64
2022-08-10T00:52:52.273Z,42.96
2022-08-10T00:55:18.995Z,42.71
2022-08-10T00:57:46.287Z,42.92
2022-08-10T01:00:21.688Z,42.79
2022-08-10T01:02:48.412Z,42.79
2022-08-10T01:05:14.987Z,42.69
2022-08-10T01:08:02.853Z,42.69
2022-08-10T01:10:32.385Z,42.77
2022-08-10T01:13:01.871Z,42.76
2022-08-10T01:15:36.984Z,42.45
2022-08-10T01:18:13.552Z,42.65
2022-08-10T01:20:54.892Z,42.63
2022-08-10T01:23:33.507Z,42.70
2022-08-10T01:26:31.243Z,42.49
2022-08-10T01:29:01.191Z,42.48
2022-08-10T01:31:30.441Z,42.53
2022-08-10T01:34:02.242Z,42.49
2022-08-10T01:36:32.421Z,42.45
2022-08-10T01:39:01.435Z,42.14
2022-08-10T01:41:46.221Z,42.06
2022-08-10T01:44:14.808Z,42.24
2022-08-10T01:46:45.045Z,42.29
2022-08-10T01:49:12.303Z,42.21
2022-08-10T01:51:40.361Z,42.31
2022-08-10T01:54:12.642Z,42.10
2022-08-10T01:56:42.136Z,42.15
2022-08-10T01:59:24.024Z,42.27
2022-08-10T02:01:58.543Z,42.14
2022-08-10T02:04:26.269Z,41.91
2022-08-10T02:06:54.225Z,42.21
2022-08-10T02:09:27.991Z,42.11
2022-08-10T02:12:07.110Z,42.06
2022-08-10T02:14:41.471Z,41.77
2022-08-10T02:17:58.033Z,42.03
2022-08-10T02:19:59.915Z,41.93
2022-08-10T02:22:36.595Z,41.99
2022-08-10T02:25:06.777Z,41.91
2022-08-10T02:27:33.729Z,41.96
2022-08-10T02:30:01.019Z,41.98
2022-08-10T02:32:36.615Z,41.61
2022-08-10T02:35:07.460Z,41.91
2022-08-10T02:37:35.704Z,41.56
2022-08-10T02:40:02.233Z,41.61
2022-08-10T02:45:27.427Z,41.80
2022-08-10T02:45:30.884Z,41.72
2022-08-10T02:48:03.175Z,41.67
2022-08-10T02:50:29.787Z,41.89
2022-08-10T02:53:56.214Z,41.50
2022-08-10T02:56:12.156Z,41.56
2022-08-10T02:58:40.529Z,41.56
2022-08-10T03:01:08.910Z,41.72
2022-08-10T03:03:45.076Z,41.45
2022-08-10T03:06:14.269Z,41.73
2022-08-10T03:08:42.095Z,41.69
2022-08-10T03:11:13.071Z,41.55
2022-08-10T03:13:40.038Z,41.67
2022-08-10T03:16:07.882Z,41.68
2022-08-10T03:18:34.624Z,41.65
2022-08-10T03:21:01.568Z,41.70
2022-08-10T03:23:28.313Z,41.50
2022-08-10T03:25:56.459Z,41.84
2022-08-10T03:28:24.510Z,41.84
2022-08-10T03:30:51.069Z,41.90
2022-08-10T03:33:17.978Z,41.94
2022-08-10T03:36:41.865Z,41.99
2022-08-10T03:38:30.999Z,42.08
2022-08-10T03:40:58.952Z,42.07
2022-08-10T03:43:25.863Z,42.05
2022-08-10T03:45:55.020Z,42.06
2022-08-10T03:48:33.092Z,42.09
2022-08-10T03:51:13.980Z,41.96
2022-08-10T03:54:06.192Z,41.98
2022-08-10T03:56:31.841Z,42.11
2022-08-10T03:58:58.804Z,41.91
2022-08-10T04:02:42.034Z,42.01
2022-08-10T04:04:14.683Z,42.05
2022-08-10T04:06:45.036Z,42.26
2022-08-10T04:09:11.461Z,42.23
2022-08-10T04:11:38.021Z,42.20
2022-08-10T04:14:07.269Z,41.99
2022-08-10T04:16:53.948Z,42.21
2022-08-10T04:19:20.968Z,42.20
2022-08-10T04:21:50.516Z,42.01
2022-08-10T04:24:27.089Z,41.95
2022-08-10T04:26:58.234Z,42.31
2022-08-10T04:29:30.575Z,42.06
2022-08-10T04:31:57.112Z,42.00
2022-08-10T04:34:26.471Z,42.26
2022-08-10T04:36:55.664Z,42.21
2022-08-10T04:39:22.406Z,42.11
2022-08-10T04:41:49.275Z,42.31
2022-08-10T04:44:15.743Z,42.35
2022-08-10T04:46:55.548Z,42.31
2022-08-10T04:49:55.251Z,42.25
2022-08-10T04:52:11.280Z,42.22
2022-08-10T04:54:37.810Z,42.01
2022-08-10T04:57:04.678Z,42.27
2022-08-10T04:59:31.099Z,42.05
2022-08-10T05:02:21.535Z,42.23
2022-08-10T05:04:44.427Z,42.19
2022-08-10T05:07:15.862Z,42.21
2022-08-10T05:10:04.909Z,41.89
2022-08-10T05:12:30.546Z,42.10
2022-08-10T05:14:57.225Z,42.27
2022-08-10T05:17:24.018Z,42.16
2022-08-10T05:20:02.314Z,42.27
2022-08-10T05:22:43.499Z,42.29
2022-08-10T05:25:12.644Z,42.14
2022-08-10T05:27:40.162Z,42.04
2022-08-10T05:30:07.716Z,42.13
2022-08-10T05:32:57.958Z,42.24
2022-08-10T05:35:21.808Z,42.22
2022-08-10T05:38:13.035Z,42.26
2022-08-10T05:40:38.299Z,41.94
2022-08-10T05:43:05.386Z,42.32
2022-08-10T05:45:31.888Z,42.27
2022-08-10T05:48:55.623Z,42.38
2022-08-10T05:50:45.024Z,42.41
2022-08-10T05:53:58.736Z,42.19
2022-08-10T05:55:58.017Z,42.07
2022-08-10T05:58:24.548Z,42.44
2022-08-10T06:00:55.633Z,42.22
2022-08-10T06:03:31.747Z,42.41
2022-08-10T06:05:58.762Z,42.45
2022-08-10T06:08:28.340Z,42.41
2022-08-10T06:12:23.600Z,42.14
2022-08-10T06:14:13.063Z,42.47
2022-08-10T06:16:45.061Z,42.33
2022-08-10T06:19:15.053Z,42.57
2022-08-10T06:22:01.036Z,42.64
2022-08-10T06:24:31.956Z,42.40
2022-08-10T06:27:01.450Z,42.47
2022-08-10T06:29:29.652Z,42.71
2022-08-10T06:31:57.131Z,42.34
2022-08-10T06:34:26.860Z,42.60
2022-08-10T06:36:55.379Z,42.57
2022-08-10T06:39:33.639Z,42.25
2022-08-10T06:42:16.619Z,42.45
2022-08-10T06:44:47.411Z,42.44
2022-08-10T06:47:22.860Z,42.62
2022-08-10T06:49:52.043Z,42.70
2022-08-10T06:52:19.523Z,42.57
2022-08-10T06:54:46.946Z,42.76
2022-08-10T06:57:20.868Z,42.47
2022-08-10T06:59:49.220Z,42.75
2022-08-10T07:02:21.644Z,42.59
2022-08-10T07:05:08.372Z,42.54
2022-08-10T07:07:36.909Z,42.60
2022-08-10T07:10:03.829Z,42.80
2022-08-10T07:12:31.545Z,42.78
2022-08-10T07:14:59.256Z,42.44
2022-08-10T07:17:26.663Z,42.50
2022-08-10T07:19:55.343Z,42.60
2022-08-10T07:23:53.774Z,42.56
2022-08-10T07:25:12.287Z,43.00
2022-08-10T07:27:59.036Z,43.09
2022-08-10T07:30:30.092Z,43.23
2022-08-10T07:32:57.228Z,43.41
2022-08-10T07:35:24.544Z,43.38
2022-08-10T07:37:51.865Z,43.62
2022-08-10T07:40:20.985Z,43.48
2022-08-10T07:42:56.108Z,43.63
2022-08-10T07:45:22.980Z,43.56
2022-08-10T07:47:55.453Z,43.66
2022-08-10T07:50:24.476Z,43.80
2022-08-10T07:52:53.269Z,43.57
2022-08-10T07:56:05.687Z,43.30
2022-08-10T07:58:07.251Z,43.39
2022-08-10T08:00:34.899Z,43.47
2022-08-10T08:03:02.330Z,43.42
2022-08-10T08:05:57.265Z,43.77
2022-08-10T08:08:18.188Z,43.70
2022-08-10T08:10:45.669Z,43.55
2022-08-10T08:13:13.587Z,43.53
2022-08-10T08:16:17.052Z,43.43
2022-08-10T08:18:30.863Z,43.53
2022-08-10T08:20:58.579Z,43.46
2022-08-10T08:24:10.072Z,42.69
2022-08-10T08:26:17.036Z,42.78
2022-08-10T08:28:45.598Z,42.43
2022-08-10T08:31:16.594Z,42.62
2022-08-10T08:33:44.414Z,42.47
2022-08-10T08:36:11.467Z,42.31
2022-08-10T08:38:38.388Z,42.19
2022-08-10T08:41:20.379Z,42.16
2022-08-10T08:43:53.184Z,42.20
2022-08-10T08:46:28.793Z,42.34
2022-08-10T08:48:59.094Z,42.33
2022-08-10T08:52:16.931Z,42.10
2022-08-10T08:54:24.012Z,41.97
2022-08-10T08:57:06.145Z,41.69
2022-08-10T08:59:51.584Z,41.83
2022-08-10T09:02:38.482Z,41.60
2022-08-10T09:05:23.363Z,41.24
2022-08-10T09:08:11.792Z,41.19
2022-08-10T09:10:38.431Z,41.26
2022-08-10T09:13:26.535Z,41.29
2022-08-10T09:16:12.011Z,41.11
2022-08-10T09:18:51.313Z,41.41
2022-08-10T09:21:17.836Z,41.40
2022-08-10T09:24:05.448Z,41.16
2022-08-10T09:26:42.814Z,41.38
2022-08-10T09:29:14.910Z,41.40
2022-08-10T09:32:54.318Z,42.01
2022-08-10T09:36:24.250Z,42.04
2022-08-10T09:40:48.540Z,42.79
2022-08-10T09:43:35.254Z,42.79
2022-08-10T09:46:11.781Z,42.85
2022-08-10T09:48:54.408Z,42.66
2022-08-10T09:54:17.136Z,42.65
2022-08-10T09:57:44.876Z,42.27
2022-08-10T10:00:20.711Z,42.48
2022-08-10T10:03:09.283Z,42.42
2022-08-10T10:05:58.194Z,42.43
2022-08-10T10:08:53.805Z,42.71
2022-08-10T10:12:05.368Z,42.35
2022-08-10T10:15:24.711Z,42.39
2022-08-10T10:18:16.471Z,42.55
2022-08-10T10:21:00.154Z,42.76
2022-08-10T10:23:38.280Z,42.32
2022-08-10T10:26:23.417Z,42.51
2022-08-10T10:29:37.574Z,42.73
2022-08-10T10:32:26.102Z,43.02
2022-08-10T10:35:21.002Z,43.18
2022-08-10T10:38:01.512Z,43.36
2022-08-10T10:41:07.448Z,43.54
2022-08-10T10:44:01.964Z,43.60
2022-08-10T10:47:16.680Z,43.71
2022-08-10T10:50:01.825Z,43.88
2022-08-10T10:52:37.845Z,43.74
2022-08-10T10:55:16.517Z,44.13
2022-08-10T10:58:01.578Z,44.10
2022-08-10T11:00:42.067Z,44.29
2022-08-10T11:03:17.490Z,44.85
2022-08-10T11:06:12.251Z,44.79
2022-08-10T11:08:47.145Z,45.29
2022-08-10T11:12:00.841Z,44.89
2022-08-10T11:14:35.911Z,45.29
2022-08-10T11:17:09.458Z,44.60
2022-08-10T11:20:03.031Z,44.41
2022-08-10T11:22:30.515Z,44.50
2022-08-10T11:25:21.996Z,44.39
2022-08-10T11:27:54.653Z,44.05
2022-08-10T11:30:31.355Z,44.04
2022-08-10T11:33:32.892Z,43.55
2022-08-10T11:36:09.040Z,43.24
2022-08-10T11:39:13.440Z,43.21
2022-08-10T11:42:12.277Z,43.10
2022-08-10T11:45:03.172Z,42.50
2022-08-10T11:47:50.075Z,42.63
2022-08-10T11:50:26.125Z,42.25
2022-08-10T11:53:05.477Z,42.45
2022-08-10T11:55:34.353Z,41.88
2022-08-10T11:58:29.089Z,42.23
2022-08-10T12:00:59.496Z,41.94
2022-08-10T12:03:34.594Z,41.73
2022-08-10T12:06:04.603Z,41.42
2022-08-10T12:10:11.389Z,41.85
2022-08-10T12:11:25.098Z,41.75
2022-08-10T12:14:21.560Z,41.89
2022-08-10T12:16:55.166Z,41.62
2022-08-10T12:19:31.338Z,41.82
2022-08-10T12:22:29.765Z,41.78
2022-08-10T12:25:00.532Z,41.90
2022-08-10T12:27:35.121Z,42.15
2022-08-10T12:30:04.096Z,42.38
2022-08-10T12:32:53.952Z,42.74
2022-08-10T12:35:36.449Z,42.69
2022-08-10T12:38:08.941Z,42.83
2022-08-10T12:40:55.526Z,42.86
2022-08-10T12:44:05.266Z,43.04
2022-08-10T12:46:26.169Z,42.87
2022-08-10T12:49:26.849Z,42.60
2022-08-10T12:52:02.098Z,42.93
2022-08-10T12:54:36.225Z,42.78
2022-08-10T12:57:18.372Z,42.90
2022-08-10T12:59:50.311Z,42.75
2022-08-10T13:02:29.497Z,42.48
2022-08-10T13:04:58.229Z,42.75
2022-08-10T13:08:24.379Z,42.48
2022-08-10T13:10:21.024Z,42.41
2022-08-10T13:12:51.193Z,41.74
2022-08-10T13:15:30.129Z,41.74
2022-08-10T13:18:18.057Z,41.16
2022-08-10T13:20:51.067Z,40.92
2022-08-10T13:23:20.655Z,40.95
2022-08-10T13:25:50.298Z,40.78
2022-08-10T13:28:35.706Z,41.09
2022-08-10T13:31:16.191Z,41.10
2022-08-10T13:34:39.213Z,40.89
2022-08-10T13:37:02.420Z,41.08
2022-08-10T13:39:59.029Z,40.68
2022-08-10T13:42:36.672Z,40.41
2022-08-10T13:45:33.684Z,40.74
2022-08-10T13:48:20.620Z,39.89
2022-08-10T13:50:50.743Z,39.49
2022-08-10T13:53:19.476Z,39.56
2022-08-10T13:55:57.949Z,39.54
2022-08-10T13:58:33.632Z,39.23
2022-08-10T14:01:03.880Z,39.00
2022-08-10T14:03:37.721Z,39.01
2022-08-10T14:06:07.028Z,38.50
2022-08-10T14:08:35.392Z,38.55
2022-08-10T14:11:10.948Z,38.05
2022-08-10T14:13:59.187Z,38.25
2022-08-10T14:16:27.371Z,38.42
2022-08-10T14:18:58.013Z,38.00
2022-08-10T14:21:24.819Z,38.35
2022-08-10T14:23:53.770Z,38.06
2022-08-10T14:26:28.184Z,37.95
2022-08-10T14:29:03.744Z,38.08
2022-08-10T14:31:34.140Z,38.61
2022-08-10T14:34:03.803Z,38.23
2022-08-10T14:36:45.794Z,38.26
2022-08-10T14:39:20.979Z,38.90
2022-08-10T14:42:01.694Z,38.72
2022-08-10T14:44:45.070Z,39.08
2022-08-10T14:47:51.394Z,38.61
2022-08-10T14:50:05.586Z,38.88
2022-08-10T14:52:39.234Z,38.57
2022-08-10T14:55:19.110Z,39.28
2022-08-10T14:58:16.480Z,38.85
2022-08-10T15:00:42.729Z,39.27
2022-08-10T15:04:02.119Z,38.71
2022-08-10T15:06:08.048Z,38.98
2022-08-10T15:08:46.937Z,38.62
2022-08-10T15:12:14.804Z,38.85
2022-08-10T15:14:41.588Z,39.21
2022-08-10T15:16:55.411Z,38.74
2022-08-10T15:20:00.731Z,38.77
2022-08-10T15:22:36.310Z,38.85
2022-08-10T15:25:18.068Z,38.55
2022-08-10T15:27:54.677Z,38.85
2022-08-10T15:30:30.129Z,38.73
2022-08-10T15:33:59.431Z,38.51
2022-08-10T15:36:38.119Z,38.53
2022-08-10T15:39:15.010Z,38.69
2022-08-10T15:42:04.295Z,39.16
2022-08-10T15:44:53.454Z,39.15
2022-08-10T15:47:25.695Z,39.46
2022-08-10T15:50:04.958Z,39.63
2022-08-10T15:53:01.982Z,39.83
2022-08-10T15:55:46.837Z,39.82
2022-08-10T15:58:38.651Z,40.10
2022-08-10T16:02:12.404Z,39.78
2022-08-10T16:04:19.432Z,40.06
2022-08-10T16:06:57.444Z,39.83
2022-08-10T16:10:22.197Z,39.67
2022-08-10T16:12:30.063Z,39.47
2022-08-10T16:15:01.069Z,39.41
2022-08-10T16:17:28.983Z,39.56
2022-08-10T16:19:58.657Z,39.50
2022-08-10T16:22:36.068Z,39.86
2022-08-10T16:25:13.967Z,40.00
2022-08-10T16:27:42.983Z,40.19
2022-08-10T16:30:10.270Z,39.81
2022-08-10T16:32:39.053Z,40.10
2022-08-10T16:35:09.750Z,40.04
2022-08-10T16:37:58.163Z,40.08
2022-08-10T16:40:30.865Z,40.01
2022-08-10T16:42:59.980Z,39.86
2022-08-10T16:45:43.595Z,39.94
2022-08-10T16:48:12.217Z,40.07
2022-08-10T16:50:46.157Z,40.26
2022-08-10T16:53:15.602Z,40.17
2022-08-10T16:55:54.247Z,39.99
2022-08-10T16:58:25.328Z,40.48
2022-08-10T17:00:53.854Z,40.24
2022-08-10T17:04:07.087Z,40.38
2022-08-10T17:06:23.673Z,40.21
2022-08-10T17:08:53.761Z,40.41
2022-08-10T17:11:23.086Z,40.37
2022-08-10T17:13:50.136Z,40.15
2022-08-10T17:16:17.601Z,40.55
2022-08-10T17:18:46.618Z,40.22
2022-08-10T17:21:20.531Z,40.25
2022-08-10T17:23:51.468Z,40.21
2022-08-10T17:26:26.976Z,40.33
2022-08-10T17:29:09.500Z,40.43
2022-08-10T17:32:00.701Z,40.46
2022-08-10T17:34:31.493Z,40.75
2022-08-10T17:37:01.371Z,40.63
2022-08-10T17:39:33.869Z,40.23
2022-08-10T17:42:02.132Z,40.27
2022-08-10T17:44:36.096Z,40.68
2022-08-10T17:47:10.865Z,40.34
2022-08-10T17:49:38.639Z,40.73
2022-08-10T17:52:10.428Z,40.36
2022-08-10T17:54:44.371Z,40.60
2022-08-10T17:57:18.671Z,40.57
2022-08-10T17:59:46.821Z,40.66
2022-08-10T18:02:19.311Z,40.74
2022-08-10T18:04:52.143Z,40.66
2022-08-10T18:07:22.417Z,40.67
2022-08-10T18:09:51.750Z,40.44
2022-08-10T18:12:52.730Z,40.58
2022-08-10T18:15:22.307Z,40.74
2022-08-10T18:17:58.332Z,40.82
2022-08-10T18:20:34.127Z,40.68
2022-08-10T18:23:02.369Z,40.71
2022-08-10T18:25:38.447Z,40.55
2022-08-10T18:28:10.609Z,40.75
2022-08-10T18:30:48.082Z,40.49
2022-08-10T18:33:18.706Z,40.76
2022-08-10T18:35:47.857Z,40.60
2022-08-10T18:38:16.523Z,40.73
2022-08-10T18:40:53.084Z,40.55
2022-08-10T18:44:04.405Z,40.61
2022-08-10T18:46:21.709Z,40.65
2022-08-10T18:49:00.204Z,40.27
2022-08-10T18:51:35.706Z,40.70
2022-08-10T18:56:56.874Z,40.63
2022-08-10T18:59:36.461Z,40.63
2022-08-10T19:02:26.117Z,40.55
2022-08-10T19:05:30.279Z,40.52
2022-08-10T19:08:31.167Z,40.34
2022-08-10T19:11:25.521Z,40.36
2022-08-10T19:14:41.025Z,40.68
2022-08-10T19:17:26.149Z,40.33
2022-08-10T19:20:48.337Z,40.55
2022-08-10T19:23:33.589Z,40.58
2022-08-10T19:26:44.815Z,40.21
2022-08-10T19:30:09.294Z,40.31
2022-08-10T19:32:46.489Z,40.65
2022-08-10T19:36:04.579Z,40.44
2022-08-10T19:39:07.317Z,40.23
2022-08-10T19:41:45.320Z,40.69
2022-08-10T19:44:26.308Z,40.64
2022-08-10T19:47:17.575Z,40.24
2022-08-10T19:50:03.519Z,40.37
2022-08-10T19:52:42.524Z,40.63
2022-08-10T19:55:17.489Z,40.33
2022-08-10T19:58:02.108Z,40.32
2022-08-10T20:00:59.659Z,40.33
2022-08-10T20:03:39.933Z,40.53
2022-08-10T20:06:20.061Z,40.20
2022-08-10T20:08:53.026Z,40.29
2022-08-10T20:11:44.045Z,40.22
2022-08-10T20:14:29.162Z,40.54
2022-08-10T20:19:53.418Z,40.14
2022-08-10T20:22:29.787Z,40.46
2022-08-10T20:25:22.865Z,40.39
2022-08-10T20:28:03.629Z,40.32
2022-08-10T20:30:36.437Z,40.06
2022-08-10T20:33:31.790Z,40.56
2022-08-10T20:36:07.438Z,40.39
2022-08-10T20:38:45.868Z,40.36
2022-08-10T20:41:33.090Z,40.41
2022-08-10T20:44:34.868Z,40.49
2022-08-10T20:47:20.054Z,40.41
2022-08-10T20:50:02.380Z,40.13
2022-08-10T20:52:30.795Z,40.56
2022-08-10T20:55:08.405Z,40.45
2022-08-10T20:57:57.122Z,40.44
2022-08-10T21:00:50.574Z,40.15
2022-08-10T21:04:13.142Z,40.04
2022-08-10T21:06:49.243Z,40.55
2022-08-10T21:09:37.539Z,40.45
2022-08-10T21:12:42.472Z,40.34
2022-08-10T21:15:23.457Z,40.37
2022-08-10T21:18:14.628Z,40.38
2022-08-10T21:20:56.299Z,40.17
2022-08-10T21:23:30.653Z,39.87
2022-08-10T21:26:37.090Z,39.98
2022-08-10T21:29:39.761Z,39.93
2022-08-10T21:32:12.846Z,39.85
2022-08-10T21:34:55.413Z,40.17
2022-08-10T21:37:56.911Z,39.78
2022-08-10T21:41:18.892Z,39.40
2022-08-10T21:44:37.044Z,39.11
2022-08-10T21:48:06.846Z,39.37
2022-08-10T21:51:01.517Z,39.42
2022-08-10T21:54:06.076Z,39.33
2022-08-10T21:57:14.197Z,39.55
2022-08-10T22:00:14.401Z,40.10
2022-08-10T22:03:02.788Z,39.97
2022-08-10T22:05:55.643Z,39.94
2022-08-10T22:09:06.939Z,40.09
2022-08-10T22:12:00.513Z,40.41
2022-08-10T22:18:10.541Z,40.39
2022-08-10T22:20:33.255Z,40.40
2022-08-10T22:23:37.278Z,40.46
2022-08-10T22:27:47.574Z,40.35
2022-08-10T22:30:34.656Z,40.10
2022-08-10T22:33:41.910Z,40.31
2022-08-10T22:36:42.651Z,40.54
2022-08-10T22:40:11.152Z,40.65
2022-08-10T22:43:10.784Z,40.67
2022-08-10T22:46:09.108Z,40.36
2022-08-10T22:48:59.652Z,40.21
2022-08-10T22:52:00.141Z,40.41
2022-08-10T22:54:54.077Z,40.42
2022-08-10T22:57:40.541Z,40.54
2022-08-10T23:00:17.166Z,40.08
2022-08-10T23:02:57.701Z,40.37
2022-08-10T23:05:38.740Z,40.35
2022-08-10T23:08:29.467Z,39.99
2022-08-10T23:11:02.987Z,40.48
2022-08-10T23:13:43.674Z,40.02
2022-08-10T23:16:36.740Z,40.48
2022-08-10T23:19:25.534Z,40.15
2022-08-10T23:22:05.077Z,40.36
2022-08-10T23:24:47.704Z,40.06
2022-08-10T23:27:38.087Z,40.16
2022-08-10T23:30:10.270Z,40.08
2022-08-10T23:36:13.109Z,40.15
2022-08-10T23:37:42.107Z,40.61
2022-08-10T23:40:14.737Z,40.45
2022-08-10T23:42:48.763Z,40.40
2022-08-10T23:45:19.914Z,40.58
2022-08-10T23:47:51.137Z,40.61
2022-08-10T23:50:19.016Z,40.39
2022-08-10T23:52:59.950Z,40.33
2022-08-10T23:55:33.925Z,40.42
2022-08-10T23:58:31.552Z,40.42
